createdAt,value
2019-02-18T00:00:46.642Z,49.62
2019-02-18T00:03:15.096Z,49.62
2019-02-18T00:05:43.767Z,49.67
2019-02-18T00:08:12.153Z,49.77
2019-02-18T00:10:40.539Z,50.08
2019-02-18T00:13:09.244Z,50.17
2019-02-18T00:15:37.768Z,50.06
2019-02-18T00:18:06.183Z,50.06
2019-02-18T00:20:34.671Z,50.03
2019-02-18T00:23:03.080Z,50.06
2019-02-18T00:25:31.489Z,49.93
2019-02-18T00:27:59.879Z,49.93
2019-02-18T00:30:28.619Z,50.06
2019-02-18T00:32:57.298Z,49.87
2019-02-18T00:35:25.691Z,49.84
2019-02-18T00:37:54.463Z,49.84
2019-02-18T00:40:23.246Z,49.99
2019-02-18T00:42:51.942Z,49.92
2019-02-18T00:45:20.629Z,49.91
2019-02-18T00:47:49.025Z,50.10
2019-02-18T00:50:17.481Z,49.97
2019-02-18T00:52:45.889Z,49.84
2019-02-18T00:55:14.268Z,49.84
2019-02-18T00:57:42.662Z,50.31
2019-02-18T01:00:14.563Z,50.30
2019-02-18T01:02:43.386Z,50.30
2019-02-18T01:05:12.262Z,50.57
2019-02-18T01:07:40.801Z,50.57
2019-02-18T01:10:13.627Z,50.33
2019-02-18T01:12:42.319Z,50.47
2019-02-18T01:15:13.189Z,50.37
2019-02-18T01:17:41.539Z,50.27
2019-02-18T01:20:14.908Z,50.51
2019-02-18T01:22:43.318Z,50.51
2019-02-18T01:25:13.422Z,50.92
2019-02-18T01:27:41.829Z,51.43
2019-02-18T01:30:15.516Z,51.43
2019-02-18T01:32:43.982Z,51.64
2019-02-18T01:35:12.908Z,51.30
2019-02-18T01:37:45.864Z,51.11
2019-02-18T01:40:15.316Z,51.05
2019-02-18T01:42:44.001Z,50.83
2019-02-18T01:45:14.069Z,50.83
2019-02-18T01:47:42.484Z,50.93
2019-02-18T01:50:13.490Z,50.74
2019-02-18T01:52:41.949Z,50.76
2019-02-18T01:55:12.172Z,50.82
2019-02-18T01:57:40.823Z,50.87
2019-02-18T02:00:15.071Z,50.87
2019-02-18T02:02:43.469Z,51.03
2019-02-18T02:05:14.121Z,50.86
2019-02-18T02:07:42.614Z,51.17
2019-02-18T02:10:13.240Z,51.17
2019-02-18T02:12:41.693Z,51.04
2019-02-18T02:15:18.816Z,51.65
2019-02-18T02:17:47.270Z,52.41
2019-02-18T02:20:15.673Z,52.41
2019-02-18T02:22:44.093Z,52.41
2019-02-18T02:25:12.486Z,52.47
2019-02-18T02:27:40.910Z,52.61
2019-02-18T02:30:11.012Z,52.32
2019-02-18T02:32:39.468Z,52.32
2019-02-18T02:35:08.183Z,52.55
2019-02-18T02:37:36.866Z,52.55
2019-02-18T02:40:08.491Z,53.06
2019-02-18T02:42:37.210Z,53.06
2019-02-18T02:45:07.531Z,53.13
2019-02-18T02:47:35.919Z,53.13
2019-02-18T02:50:05.557Z,53.47
2019-02-18T02:52:34.207Z,53.69
2019-02-18T02:55:02.601Z,53.77
2019-02-18T02:57:31.108Z,53.81
2019-02-18T02:59:59.860Z,53.66
2019-02-18T03:02:28.272Z,53.66
2019-02-18T03:04:57.024Z,53.86
2019-02-18T03:07:25.731Z,53.96
2019-02-18T03:09:54.156Z,54.43
2019-02-18T03:12:22.544Z,54.90
2019-02-18T03:14:51.357Z,55.08
2019-02-18T03:17:19.909Z,55.48
2019-02-18T03:19:48.622Z,55.64
2019-02-18T03:22:17.036Z,55.71
2019-02-18T03:25:19.560Z,55.89
2019-02-18T03:27:50.112Z,56.30
2019-02-18T03:30:33.774Z,56.31
2019-02-18T03:33:02.377Z,56.39
2019-02-18T03:35:30.752Z,56.28
2019-02-18T03:37:59.481Z,56.13
2019-02-18T03:40:27.879Z,56.07
2019-02-18T03:42:56.281Z,55.90
2019-02-18T03:45:24.677Z,55.83
2019-02-18T03:47:53.064Z,55.48
2019-02-18T03:50:21.714Z,55.27
2019-02-18T03:52:50.116Z,55.29
2019-02-18T03:55:18.776Z,55.07
2019-02-18T03:57:47.271Z,55.07
2019-02-18T04:00:15.868Z,55.26
2019-02-18T04:02:44.246Z,55.28
2019-02-18T04:05:12.639Z,55.34
2019-02-18T04:07:41.032Z,55.47
2019-02-18T04:10:11.070Z,55.60
2019-02-18T04:12:39.467Z,55.75
2019-02-18T04:15:11.228Z,55.66
2019-02-18T04:17:39.708Z,55.81
2019-02-18T04:20:08.747Z,55.88
2019-02-18T04:22:37.135Z,55.53
2019-02-18T04:25:07.079Z,55.33
2019-02-18T04:27:35.792Z,55.07
2019-02-18T04:30:09.732Z,55.07
2019-02-18T04:32:38.118Z,54.85
2019-02-18T04:35:08.354Z,54.93
2019-02-18T04:37:36.913Z,54.53
2019-02-18T04:40:08.466Z,54.53
2019-02-18T04:42:36.992Z,54.85
2019-02-18T04:45:08.062Z,54.79
2019-02-18T04:47:36.491Z,54.53
2019-02-18T04:50:06.312Z,54.60
2019-02-18T04:52:34.937Z,54.43
2019-02-18T04:55:04.188Z,54.18
2019-02-18T04:57:32.585Z,54.51
2019-02-18T05:00:01.304Z,53.98
2019-02-18T05:02:29.987Z,53.98
2019-02-18T05:04:58.390Z,54.15
2019-02-18T05:07:27.055Z,54.08
2019-02-18T05:09:55.764Z,54.25
2019-02-18T05:12:24.229Z,54.43
2019-02-18T05:14:52.913Z,54.26
2019-02-18T05:17:21.701Z,54.50
2019-02-18T05:19:50.086Z,54.57
2019-02-18T05:22:18.509Z,54.51
2019-02-18T05:24:46.911Z,54.42
2019-02-18T05:27:15.301Z,54.57
2019-02-18T05:29:43.691Z,54.73
2019-02-18T05:32:12.088Z,54.62
2019-02-18T05:34:40.533Z,54.74
2019-02-18T05:37:08.930Z,54.49
2019-02-18T05:39:37.316Z,54.37
2019-02-18T05:42:06.000Z,54.46
2019-02-18T05:44:34.400Z,54.71
2019-02-18T05:47:03.062Z,54.90
2019-02-18T05:49:31.479Z,55.05
2019-02-18T05:51:59.849Z,55.34
2019-02-18T05:54:28.272Z,55.66
2019-02-18T05:56:56.916Z,55.94
2019-02-18T05:59:25.339Z,56.18
2019-02-18T06:01:53.713Z,56.25
2019-02-18T06:04:22.124Z,56.35
2019-02-18T06:06:50.899Z,56.44
2019-02-18T06:09:29.076Z,56.40
2019-02-18T06:11:49.510Z,56.41
2019-02-18T06:14:17.901Z,56.82
2019-02-18T06:16:46.303Z,56.62
2019-02-18T06:19:14.790Z,56.46
2019-02-18T06:21:43.194Z,56.69
2019-02-18T06:24:11.577Z,56.78
2019-02-18T06:26:39.990Z,56.79
2019-02-18T06:29:08.372Z,56.76
2019-02-18T06:31:36.775Z,56.71
2019-02-18T06:34:05.232Z,56.47
2019-02-18T06:36:33.626Z,56.43
2019-02-18T06:39:02.027Z,56.39
2019-02-18T06:41:30.457Z,56.19
2019-02-18T06:43:59.157Z,55.91
2019-02-18T06:46:32.252Z,55.85
2019-02-18T06:49:14.539Z,55.62
2019-02-18T06:51:43.062Z,55.46
2019-02-18T06:54:11.451Z,55.20
2019-02-18T06:56:56.797Z,55.33
2019-02-18T06:59:36.129Z,55.09
2019-02-18T07:02:06.262Z,55.14
2019-02-18T07:04:36.573Z,55.33
2019-02-18T07:07:06.905Z,55.00
2019-02-18T07:09:54.934Z,55.12
2019-02-18T07:12:24.984Z,55.09
2019-02-18T07:14:53.378Z,54.98
2019-02-18T07:17:21.824Z,54.41
2019-02-18T07:19:50.505Z,54.41
2019-02-18T07:22:18.891Z,54.84
2019-02-18T07:24:47.296Z,54.66
2019-02-18T07:27:15.765Z,54.71
2019-02-18T07:29:44.424Z,54.64
2019-02-18T07:32:12.837Z,54.80
2019-02-18T07:34:41.489Z,54.48
2019-02-18T07:37:10.181Z,54.55
2019-02-18T07:39:38.872Z,54.50
2019-02-18T07:42:07.273Z,54.37
2019-02-18T07:44:35.928Z,53.89
2019-02-18T07:47:04.641Z,53.74
2019-02-18T07:49:33.301Z,54.01
2019-02-18T07:52:02.003Z,53.73
2019-02-18T07:54:30.401Z,53.36
2019-02-18T07:56:58.982Z,52.86
2019-02-18T07:59:27.414Z,53.06
2019-02-18T08:01:56.237Z,53.16
2019-02-18T08:04:24.910Z,52.95
2019-02-18T08:06:53.592Z,52.53
2019-02-18T08:09:22.283Z,52.17
2019-02-18T08:11:50.971Z,51.83
2019-02-18T08:14:19.960Z,51.83
2019-02-18T08:16:48.346Z,51.55
2019-02-18T08:19:16.738Z,51.72
2019-02-18T08:21:45.400Z,51.48
2019-02-18T08:24:14.088Z,51.52
2019-02-18T08:26:44.195Z,51.52
2019-02-18T08:29:12.749Z,50.94
2019-02-18T08:31:41.202Z,50.64
2019-02-18T08:34:09.558Z,50.64
2019-02-18T08:36:38.236Z,50.72
2019-02-18T08:39:06.908Z,50.72
2019-02-18T08:41:35.602Z,50.61
2019-02-18T08:44:04.302Z,50.61
2019-02-18T08:46:32.705Z,49.98
2019-02-18T08:49:01.360Z,48.99
2019-02-18T08:51:30.050Z,48.94
2019-02-18T08:53:58.769Z,48.55
2019-02-18T08:56:27.420Z,48.55
2019-02-18T08:58:56.211Z,47.21
2019-02-18T09:01:24.999Z,46.74
2019-02-18T09:03:53.392Z,46.30
2019-02-18T09:06:22.096Z,46.21
2019-02-18T09:08:50.783Z,46.21
2019-02-18T09:11:19.243Z,45.89
2019-02-18T09:13:47.748Z,45.84
2019-02-18T09:16:16.401Z,45.21
2019-02-18T09:18:44.781Z,45.36
2019-02-18T09:21:13.206Z,45.34
2019-02-18T09:23:46.200Z,44.98
2019-02-18T09:26:16.362Z,44.44
2019-02-18T09:28:44.849Z,44.16
2019-02-18T09:31:13.538Z,42.39
2019-02-18T09:33:41.938Z,42.59
2019-02-18T09:36:10.601Z,41.96
2019-02-18T09:38:39.060Z,41.43
2019-02-18T09:41:07.771Z,40.83
2019-02-18T09:43:36.447Z,41.44
2019-02-18T09:46:04.913Z,40.91
2019-02-18T09:48:33.327Z,40.81
2019-02-18T09:51:01.997Z,39.83
2019-02-18T09:53:30.395Z,40.25
2019-02-18T09:55:59.163Z,39.76
2019-02-18T09:58:27.565Z,39.60
2019-02-18T10:00:55.952Z,39.60
2019-02-18T10:03:31.511Z,39.93
2019-02-18T10:05:54.529Z,39.09
2019-02-18T10:08:22.943Z,37.83
2019-02-18T10:10:55.765Z,37.60
2019-02-18T10:13:21.453Z,37.72
2019-02-18T10:15:49.844Z,37.25
2019-02-18T10:18:18.574Z,37.82
2019-02-18T10:20:46.972Z,36.46
2019-02-18T10:23:15.461Z,36.19
2019-02-18T10:25:44.221Z,36.26
2019-02-18T10:28:12.909Z,36.74
2019-02-18T10:30:41.303Z,35.11
2019-02-18T10:33:09.699Z,35.13
2019-02-18T10:35:38.160Z,35.84
2019-02-18T10:38:06.561Z,34.78
2019-02-18T10:40:34.955Z,34.98
2019-02-18T10:43:03.357Z,33.13
2019-02-18T10:45:31.764Z,33.03
2019-02-18T10:48:00.228Z,33.60
2019-02-18T10:50:28.616Z,33.23
2019-02-18T10:52:57.822Z,33.32
2019-02-18T10:55:26.513Z,33.60
2019-02-18T10:57:54.933Z,32.66
2019-02-18T11:00:24.020Z,32.77
2019-02-18T11:02:52.408Z,33.60
2019-02-18T11:05:21.054Z,33.72
2019-02-18T11:07:49.747Z,32.19
2019-02-18T11:10:18.834Z,33.35
2019-02-18T11:12:47.851Z,32.36
2019-02-18T11:15:16.190Z,32.61
2019-02-18T11:17:44.968Z,32.68
2019-02-18T11:20:14.815Z,33.28
2019-02-18T11:22:43.205Z,33.97
2019-02-18T11:25:15.503Z,32.25
2019-02-18T11:27:43.909Z,31.78
2019-02-18T11:30:15.579Z,33.31
2019-02-18T11:32:44.285Z,32.27
2019-02-18T11:35:13.018Z,31.83
2019-02-18T11:37:41.758Z,31.97
2019-02-18T11:40:15.340Z,32.19
2019-02-18T11:42:43.800Z,31.09
2019-02-18T11:45:14.097Z,31.19
2019-02-18T11:47:42.498Z,31.08
2019-02-18T11:50:13.476Z,31.09
2019-02-18T11:52:42.034Z,31.17
2019-02-18T11:55:12.283Z,31.51
2019-02-18T11:57:41.122Z,31.25
2019-02-18T12:00:17.362Z,32.14
2019-02-18T12:02:45.747Z,31.35
2019-02-18T12:05:14.607Z,31.39
2019-02-18T12:07:44.424Z,32.30
2019-02-18T12:10:14.084Z,32.12
2019-02-18T12:12:43.037Z,32.37
2019-02-18T12:15:15.293Z,31.83
2019-02-18T12:17:43.762Z,31.46
2019-02-18T12:20:13.927Z,31.94
2019-02-18T12:22:42.356Z,31.32
2019-02-18T12:25:12.336Z,31.73
2019-02-18T12:27:41.093Z,30.70
2019-02-18T12:30:16.883Z,30.58
2019-02-18T12:32:45.624Z,30.75
2019-02-18T12:35:14.305Z,31.53
2019-02-18T12:37:42.708Z,31.16
2019-02-18T12:40:13.149Z,31.12
2019-02-18T12:42:42.536Z,30.75
2019-02-18T12:45:12.664Z,30.91
2019-02-18T12:47:41.127Z,31.09
2019-02-18T12:50:11.064Z,30.81
2019-02-18T12:52:39.739Z,31.18
2019-02-18T12:55:11.861Z,30.48
2019-02-18T12:57:40.463Z,30.41
2019-02-18T13:00:14.970Z,30.59
2019-02-18T13:02:45.005Z,30.69
2019-02-18T13:05:14.171Z,31.49
2019-02-18T13:07:42.617Z,30.02
2019-02-18T13:10:11.738Z,30.17
2019-02-18T13:12:40.417Z,30.18
2019-02-18T13:15:11.845Z,29.68
2019-02-18T13:17:42.566Z,30.50
2019-02-18T13:20:10.449Z,29.99
2019-02-18T13:22:39.312Z,30.18
2019-02-18T13:25:09.233Z,30.18
2019-02-18T13:27:38.015Z,30.51
2019-02-18T13:30:09.746Z,29.56
2019-02-18T13:32:38.141Z,30.16
2019-02-18T13:35:06.862Z,31.92
2019-02-18T13:37:35.614Z,30.44
2019-02-18T13:40:05.263Z,30.88
2019-02-18T13:42:33.651Z,30.06
2019-02-18T13:45:02.532Z,30.90
2019-02-18T13:47:30.946Z,30.99
2019-02-18T13:49:59.330Z,31.35
2019-02-18T13:52:27.734Z,30.46
2019-02-18T13:54:56.428Z,31.07
2019-02-18T13:57:25.110Z,30.74
2019-02-18T13:59:53.505Z,31.82
2019-02-18T14:02:22.174Z,30.88
2019-02-18T14:04:50.586Z,30.45
2019-02-18T14:07:19.004Z,30.60
2019-02-18T14:09:47.505Z,31.04
2019-02-18T14:12:16.501Z,30.88
2019-02-18T14:14:44.906Z,31.52
2019-02-18T14:17:13.644Z,31.47
2019-02-18T14:19:42.024Z,32.35
2019-02-18T14:22:11.086Z,31.46
2019-02-18T14:24:39.737Z,32.02
2019-02-18T14:27:08.225Z,33.12
2019-02-18T14:29:36.618Z,32.29
2019-02-18T14:32:05.368Z,32.29
2019-02-18T14:34:33.775Z,32.06
2019-02-18T14:37:02.174Z,32.47
2019-02-18T14:39:30.955Z,33.84
2019-02-18T14:41:59.419Z,32.95
2019-02-18T14:44:27.814Z,32.53
2019-02-18T14:46:56.266Z,31.28
2019-02-18T14:49:24.655Z,32.00
2019-02-18T14:51:53.110Z,31.88
2019-02-18T14:54:21.662Z,31.74
2019-02-18T14:56:50.129Z,31.99
2019-02-18T14:59:18.528Z,31.87
2019-02-18T15:01:46.929Z,32.20
2019-02-18T15:04:15.724Z,32.25
2019-02-18T15:06:44.122Z,32.29
2019-02-18T15:09:12.504Z,31.62
2019-02-18T15:11:40.904Z,32.92
2019-02-18T15:14:09.307Z,31.62
2019-02-18T15:16:38.362Z,31.62
2019-02-18T15:19:06.808Z,31.27
2019-02-18T15:21:35.195Z,30.85
2019-02-18T15:24:03.592Z,30.87
2019-02-18T15:26:32.060Z,31.08
2019-02-18T15:29:00.608Z,31.78
2019-02-18T15:31:29.015Z,32.01
2019-02-18T15:33:57.408Z,31.68
2019-02-18T15:36:26.068Z,31.85
2019-02-18T15:38:54.471Z,31.57
2019-02-18T15:41:22.857Z,32.32
2019-02-18T15:43:51.270Z,32.27
2019-02-18T15:46:19.663Z,31.32
2019-02-18T15:48:48.124Z,31.05
2019-02-18T15:51:16.762Z,31.30
2019-02-18T15:53:45.155Z,31.57
2019-02-18T15:56:13.784Z,32.07
2019-02-18T15:58:42.173Z,32.34
2019-02-18T16:01:10.628Z,32.51
2019-02-18T16:03:39.018Z,32.88
2019-02-18T16:06:07.681Z,33.37
2019-02-18T16:08:36.678Z,33.16
2019-02-18T16:11:05.360Z,33.87
2019-02-18T16:13:34.044Z,33.58
2019-02-18T16:16:02.464Z,34.24
2019-02-18T16:18:30.903Z,34.85
2019-02-18T16:20:59.319Z,34.87
2019-02-18T16:23:28.077Z,35.64
2019-02-18T16:25:56.545Z,35.72
2019-02-18T16:28:25.027Z,36.46
2019-02-18T16:30:53.481Z,36.45
2019-02-18T16:33:22.203Z,37.21
2019-02-18T16:35:50.589Z,37.49
2019-02-18T16:38:19.203Z,37.78
2019-02-18T16:40:47.624Z,37.36
2019-02-18T16:43:16.912Z,37.67
2019-02-18T16:45:45.641Z,38.35
2019-02-18T16:48:14.408Z,38.08
2019-02-18T16:50:42.810Z,37.76
2019-02-18T16:53:11.520Z,38.43
2019-02-18T16:55:39.947Z,39.16
2019-02-18T16:58:08.332Z,38.99
2019-02-18T17:00:37.501Z,39.24
2019-02-18T17:03:05.942Z,39.26
2019-02-18T17:05:34.333Z,38.90
2019-02-18T17:08:02.731Z,39.63
2019-02-18T17:10:31.577Z,39.63
2019-02-18T17:13:07.896Z,39.51
2019-02-18T17:15:30.383Z,40.21
2019-02-18T17:17:58.768Z,40.28
2019-02-18T17:20:27.181Z,40.07
2019-02-18T17:22:55.570Z,40.67
2019-02-18T17:25:24.427Z,40.50
2019-02-18T17:27:53.021Z,40.88
2019-02-18T17:30:21.682Z,40.91
2019-02-18T17:32:50.370Z,41.51
2019-02-18T17:35:18.777Z,41.27
2019-02-18T17:37:47.159Z,41.74
2019-02-18T17:40:15.716Z,41.65
2019-02-18T17:42:44.700Z,41.96
2019-02-18T17:45:15.899Z,42.18
2019-02-18T17:47:44.279Z,42.13
2019-02-18T17:50:16.898Z,42.30
2019-02-18T17:52:46.296Z,42.21
2019-02-18T17:55:19.501Z,42.76
2019-02-18T17:57:48.187Z,43.18
2019-02-18T18:00:21.536Z,43.16
2019-02-18T18:02:49.941Z,43.24
2019-02-18T18:05:18.595Z,43.37
2019-02-18T18:07:46.998Z,43.57
2019-02-18T18:10:16.125Z,43.94
2019-02-18T18:12:44.807Z,43.80
2019-02-18T18:15:15.733Z,43.80
2019-02-18T18:17:44.361Z,43.90
2019-02-18T18:20:13.984Z,43.96
2019-02-18T18:22:42.379Z,44.60
2019-02-18T18:25:12.692Z,44.55
2019-02-18T18:27:41.090Z,44.82
2019-02-18T18:30:11.972Z,44.79
2019-02-18T18:32:40.590Z,45.21
2019-02-18T18:35:11.013Z,45.36
2019-02-18T18:37:39.554Z,45.34
2019-02-18T18:40:10.747Z,45.46
2019-02-18T18:42:39.126Z,45.40
2019-02-18T18:45:13.146Z,45.86
2019-02-18T18:47:41.531Z,46.02
2019-02-18T18:50:15.886Z,46.05
2019-02-18T18:52:44.823Z,46.45
2019-02-18T18:55:13.216Z,46.65
2019-02-18T18:57:41.650Z,46.41
2019-02-18T19:00:14.575Z,46.61
2019-02-18T19:02:42.966Z,46.65
2019-02-18T19:05:11.634Z,46.79
2019-02-18T19:07:40.339Z,46.81
2019-02-18T19:10:10.079Z,46.93
2019-02-18T19:12:38.778Z,47.00
2019-02-18T19:15:10.825Z,47.31
2019-02-18T19:17:39.210Z,47.64
2019-02-18T19:20:09.105Z,47.41
2019-02-18T19:22:37.673Z,47.79
2019-02-18T19:25:10.820Z,47.85
2019-02-18T19:27:39.631Z,47.94
2019-02-18T19:30:17.164Z,48.23
2019-02-18T19:32:46.087Z,47.91
2019-02-18T19:35:14.469Z,48.34
2019-02-18T19:37:43.101Z,48.50
2019-02-18T19:40:14.219Z,48.81
2019-02-18T19:42:42.647Z,49.04
2019-02-18T19:45:17.315Z,49.25
2019-02-18T19:47:45.717Z,49.45
2019-02-18T19:50:14.248Z,49.54
2019-02-18T19:52:42.736Z,50.11
2019-02-18T19:55:12.387Z,50.11
2019-02-18T19:57:40.873Z,50.27
2019-02-18T20:00:12.365Z,50.30
2019-02-18T20:02:40.789Z,50.55
2019-02-18T20:05:10.225Z,50.60
2019-02-18T20:07:38.703Z,50.83
2019-02-18T20:10:09.827Z,50.83
2019-02-18T20:12:38.278Z,50.74
2019-02-18T20:15:09.724Z,50.84
2019-02-18T20:17:38.109Z,51.14
2019-02-18T20:20:09.518Z,51.14
2019-02-18T20:22:38.223Z,51.83
2019-02-18T20:25:08.051Z,51.83
2019-02-18T20:27:36.608Z,51.58
2019-02-18T20:30:11.262Z,51.73
2019-02-18T20:32:39.654Z,52.04
2019-02-18T20:35:09.476Z,52.19
2019-02-18T20:37:37.876Z,52.34
2019-02-18T20:40:08.017Z,52.46
2019-02-18T20:42:36.501Z,52.84
2019-02-18T20:45:10.481Z,52.84
2019-02-18T20:47:38.943Z,52.92
2019-02-18T20:50:10.585Z,52.77
2019-02-18T20:52:39.046Z,52.77
2019-02-18T20:55:10.405Z,53.00
2019-02-18T20:57:39.768Z,53.33
2019-02-18T21:00:15.580Z,53.53
2019-02-18T21:02:45.565Z,53.53
2019-02-18T21:05:14.017Z,53.57
2019-02-18T21:07:42.443Z,53.67
2019-02-18T21:10:16.775Z,53.84
2019-02-18T21:12:45.171Z,53.79
2019-02-18T21:15:14.005Z,53.96
2019-02-18T21:17:42.388Z,53.96
2019-02-18T21:20:12.526Z,54.25
2019-02-18T21:22:40.984Z,54.07
2019-02-18T21:25:10.756Z,54.22
2019-02-18T21:27:39.461Z,54.22
2019-02-18T21:30:13.220Z,54.38
2019-02-18T21:32:41.617Z,54.62
2019-02-18T21:35:10.386Z,54.62
2019-02-18T21:37:38.764Z,54.93
2019-02-18T21:40:09.608Z,54.93
2019-02-18T21:42:38.050Z,54.93
2019-02-18T21:45:12.320Z,55.09
2019-02-18T21:47:40.750Z,54.97
2019-02-18T21:50:11.293Z,55.26
2019-02-18T21:52:39.948Z,55.19
2019-02-18T21:55:10.529Z,55.19
2019-02-18T21:57:39.214Z,55.27
2019-02-18T22:00:21.413Z,55.27
2019-02-18T22:02:50.434Z,55.17
2019-02-18T22:05:19.386Z,55.24
2019-02-18T22:07:48.090Z,55.36
2019-02-18T22:10:16.778Z,55.77
2019-02-18T22:12:45.243Z,55.77
2019-02-18T22:15:15.249Z,55.79
2019-02-18T22:17:43.645Z,55.89
2019-02-18T22:20:13.569Z,55.89
2019-02-18T22:22:42.206Z,55.95
2019-02-18T22:25:12.028Z,56.11
2019-02-18T22:27:40.491Z,56.01
2019-02-18T22:30:16.410Z,56.16
2019-02-18T22:32:45.114Z,56.28
2019-02-18T22:35:14.285Z,56.28
2019-02-18T22:37:42.695Z,56.01
2019-02-18T22:40:13.220Z,56.03
2019-02-18T22:42:41.632Z,55.97
2019-02-18T22:45:11.559Z,55.97
2019-02-18T22:47:40.235Z,56.11
2019-02-18T22:50:10.958Z,56.11
2019-02-18T22:52:39.629Z,56.11
2019-02-18T22:55:09.823Z,56.21
2019-02-18T22:57:38.211Z,56.21
2019-02-18T23:00:32.428Z,56.39
2019-02-18T23:03:00.833Z,56.35
2019-02-18T23:05:29.215Z,56.51
2019-02-18T23:07:57.604Z,56.45
2019-02-18T23:10:26.007Z,56.45
2019-02-18T23:12:54.387Z,56.66
2019-02-18T23:15:22.782Z,56.66
2019-02-18T23:17:51.452Z,56.80
2019-02-18T23:20:19.844Z,56.61
2019-02-18T23:22:48.427Z,56.93
2019-02-18T23:25:17.125Z,56.93
2019-02-18T23:27:45.509Z,56.92
2019-02-18T23:30:14.163Z,56.88
2019-02-18T23:32:42.946Z,57.03
2019-02-18T23:35:11.626Z,56.95
2019-02-18T23:37:40.090Z,57.22
2019-02-18T23:40:09.009Z,57.60
2019-02-18T23:42:37.416Z,57.34
2019-02-18T23:45:06.036Z,57.45
2019-02-18T23:47:34.420Z,57.45
2019-02-18T23:50:03.338Z,57.58
2019-02-18T23:52:31.749Z,57.58
2019-02-18T23:55:00.410Z,57.90
2019-02-18T23:57:29.703Z,57.95
2019-02-18T23:59:58.392Z,58.06
